Time;durP1;ratioP1;P1;durP2;ratioP2;P2;SDS_P1;SDS_P2;PMS_P1;PMS_P2;Temp;Humidity;BMP_temperature;BMP_pressure;BME280_temperature;BME280_humidity;BME280_pressure;Samples;Min_cycle;Max_cycle;Signal;HPM_P1;HPM_P2
2023/10/30 00:02:06;;;;;;;1.87;1.07;;;13.00;99.90;;;;;;4997033;28;20473;-68
2023/10/30 00:04:34;;;;;;;2.17;1.23;;;13.10;99.90;;;;;;4996788;28;20469;-68
2023/10/30 00:07:25;;;;;;;1.70;1.17;;;13.00;99.90;;;;;;4996677;28;20432;-70
2023/10/30 00:09:52;;;;;;;1.27;1.00;;;13.10;99.90;;;;;;4996567;28;20473;-68
2023/10/30 00:12:18;;;;;;;1.60;1.20;;;13.00;99.90;;;;;;4996834;28;20465;-69
2023/10/30 00:14:50;;;;;;;1.57;1.13;;;13.00;99.90;;;;;;4996544;28;20522;-69
2023/10/30 00:17:18;;;;;;;2.70;1.37;;;13.00;99.90;;;;;;4996772;28;20442;-68
2023/10/30 00:19:45;;;;;;;1.10;0.83;;;13.00;99.90;;;;;;4996318;28;20498;-68
2023/10/30 00:22:13;;;;;;;1.63;1.00;;;13.00;99.90;;;;;;4995719;28;20466;-69
2023/10/30 00:24:40;;;;;;;2.60;0.93;;;13.00;99.90;;;;;;4996307;28;20450;-69
2023/10/30 00:27:08;;;;;;;1.37;1.03;;;13.00;99.90;;;;;;4996466;28;20426;-68
2023/10/30 00:29:40;;;;;;;10.53;1.20;;;13.00;99.90;;;;;;4995029;28;20474;-68
2023/10/30 00:32:47;;;;;;;11.13;1.20;;;13.00;99.90;;;;;;4996595;28;20570;-69
2023/10/30 00:35:18;;;;;;;1.93;0.93;;;13.00;99.90;;;;;;4996507;28;20430;-68
2023/10/30 00:37:45;;;;;;;6.20;1.13;;;13.00;99.90;;;;;;4996413;28;20512;-68
2023/10/30 00:40:24;;;;;;;2.53;1.10;;;13.00;99.90;;;;;;4996591;28;20510;-69
2023/10/30 00:42:54;;;;;;;2.20;1.00;;;13.00;99.90;;;;;;4996346;28;20433;-68
2023/10/30 00:45:21;;;;;;;1.63;1.23;;;13.00;99.90;;;;;;4996137;28;20528;-68
2023/10/30 00:47:51;;;;;;;1.50;1.20;;;13.00;99.90;;;;;;4995908;28;20430;-68
2023/10/30 00:50:19;;;;;;;1.20;1.00;;;13.00;99.90;;;;;;5009212;28;20445;-67
2023/10/30 00:52:46;;;;;;;1.10;0.90;;;13.00;99.90;;;;;;5015092;28;20429;-69
2023/10/30 00:55:21;;;;;;;2.10;0.90;;;13.00;99.90;;;;;;5015486;28;20477;-69
2023/10/30 00:57:48;;;;;;;1.40;1.03;;;13.00;99.90;;;;;;5015220;28;20444;-68
2023/10/30 01:00:18;;;;;;;3.77;0.90;;;13.00;99.90;;;;;;5015675;28;20437;-69
2023/10/30 01:02:51;;;;;;;1.43;1.13;;;13.00;99.90;;;;;;5015889;28;20429;-69
2023/10/30 01:05:20;;;;;;;2.03;1.00;;;13.10;99.90;;;;;;4998065;28;20513;-70
2023/10/30 01:07:56;;;;;;;2.20;0.87;;;13.10;99.90;;;;;;5014912;28;20472;-69
2023/10/30 01:10:23;;;;;;;8.23;1.23;;;13.10;99.90;;;;;;5014883;28;20531;-69
2023/10/30 01:12:51;;;;;;;1.20;1.00;;;13.00;99.90;;;;;;5015902;28;20429;-67
2023/10/30 01:15:26;;;;;;;1.70;0.90;;;13.10;99.90;;;;;;5014748;28;20445;-68
2023/10/30 01:17:54;;;;;;;3.57;1.00;;;13.10;99.90;;;;;;5015633;28;20836;-68
2023/10/30 01:20:23;;;;;;;1.37;0.80;;;13.10;99.90;;;;;;5015261;28;20475;-68
2023/10/30 01:22:52;;;;;;;4.37;1.40;;;13.00;99.90;;;;;;5015373;28;20421;-69
2023/10/30 01:25:19;;;;;;;3.17;0.80;;;13.00;99.90;;;;;;5015504;28;20823;-68
2023/10/30 01:27:50;;;;;;;1.67;1.17;;;13.00;99.90;;;;;;5015839;28;20508;-69
2023/10/30 01:30:17;;;;;;;4.47;0.83;;;13.00;99.90;;;;;;5015735;28;20425;-69
2023/10/30 01:33:02;;;;;;;4.30;1.17;;;13.00;99.90;;;;;;5014836;28;20459;-69
2023/10/30 01:35:30;;;;;;;1.30;0.93;;;13.00;99.90;;;;;;5015921;28;20425;-69
2023/10/30 01:37:57;;;;;;;1.00;0.80;;;13.00;99.90;;;;;;5015226;28;20756;-69
2023/10/30 01:40:24;;;;;;;1.33;0.90;;;13.10;99.90;;;;;;5015681;28;20985;-69
2023/10/30 01:42:51;;;;;;;2.10;0.93;;;13.10;99.90;;;;;;5017268;28;20483;-69
2023/10/30 01:45:18;;;;;;;1.67;1.10;;;13.10;99.90;;;;;;5015507;28;20484;-68
2023/10/30 01:47:45;;;;;;;2.67;0.97;;;13.10;99.90;;;;;;5016786;28;20472;-68
2023/10/30 01:50:14;;;;;;;1.20;0.90;;;13.10;99.90;;;;;;5017729;28;20465;-69
2023/10/30 01:52:45;;;;;;;1.30;0.93;;;13.10;99.90;;;;;;5017570;28;20509;-69
2023/10/30 01:55:20;;;;;;;1.63;0.80;;;13.10;99.90;;;;;;5129335;27;20514;-65
2023/10/30 01:57:47;;;;;;;1.77;1.00;;;13.10;99.90;;;;;;5123456;28;20431;-57
2023/10/30 02:00:15;;;;;;;1.50;0.97;;;13.10;99.90;;;;;;5133268;28;20573;-65
2023/10/30 02:02:43;;;;;;;1.67;0.73;;;13.10;99.90;;;;;;5120306;28;20428;-66
2023/10/30 02:05:10;;;;;;;5.37;0.90;;;13.10;99.90;;;;;;5111823;28;20471;-64
2023/10/30 02:07:37;;;;;;;5.03;1.20;;;13.10;99.90;;;;;;5111562;28;20531;-57
2023/10/30 02:10:05;;;;;;;7.43;0.90;;;13.10;99.90;;;;;;5136042;28;20404;-59
2023/10/30 02:12:33;;;;;;;1.20;0.90;;;13.10;99.90;;;;;;5115900;28;20453;-64
2023/10/30 02:15:00;;;;;;;1.40;0.90;;;13.10;99.90;;;;;;5135334;28;20461;-59
2023/10/30 02:17:27;;;;;;;2.60;0.90;;;13.10;99.90;;;;;;5122593;28;20524;-63
2023/10/30 02:19:54;;;;;;;2.10;1.00;;;13.00;99.90;;;;;;5125685;28;20477;-58
2023/10/30 02:22:21;;;;;;;3.97;0.97;;;13.00;99.90;;;;;;5135684;28;20417;-64
2023/10/30 02:24:48;;;;;;;1.33;1.00;;;13.00;99.90;;;;;;5111966;28;20856;-66
2023/10/30 02:27:17;;;;;;;1.73;1.10;;;13.10;99.90;;;;;;5113519;28;20533;-64
2023/10/30 02:29:45;;;;;;;1.43;0.90;;;13.10;99.90;;;;;;5135883;28;20419;-59
2023/10/30 02:32:12;;;;;;;1.20;1.00;;;13.10;99.90;;;;;;5135653;28;20413;-58
2023/10/30 02:34:39;;;;;;;2.10;1.33;;;13.10;99.90;;;;;;5132668;28;20480;-64
2023/10/30 02:37:06;;;;;;;1.30;0.70;;;13.10;99.90;;;;;;5112456;28;20527;-66
2023/10/30 02:39:34;;;;;;;1.57;1.00;;;13.10;99.90;;;;;;5123042;28;20510;-58
2023/10/30 02:42:02;;;;;;;2.60;0.80;;;13.10;99.90;;;;;;5131429;28;20559;-66
2023/10/30 02:44:30;;;;;;;1.00;0.80;;;13.10;99.90;;;;;;5129432;28;20507;-54
2023/10/30 02:46:57;;;;;;;1.50;0.90;;;13.10;99.90;;;;;;5127744;28;20468;-65
2023/10/30 02:49:25;;;;;;;2.33;1.23;;;13.10;99.90;;;;;;5114905;28;20425;-56
2023/10/30 02:51:51;;;;;;;1.87;1.33;;;13.10;99.90;;;;;;5113334;28;20967;-61
2023/10/30 02:54:18;;;;;;;1.20;1.00;;;13.10;99.90;;;;;;5093280;28;20481;-60
2023/10/30 02:56:46;;;;;;;3.70;0.87;;;13.10;99.90;;;;;;5114765;28;20418;-55
2023/10/30 02:59:13;;;;;;;3.03;1.10;;;13.10;99.90;;;;;;5100294;28;20457;-66
2023/10/30 03:01:42;;;;;;;2.80;1.00;;;13.00;99.90;;;;;;5107933;28;20437;-56
2023/10/30 03:04:09;;;;;;;2.10;1.03;;;13.10;99.90;;;;;;5111078;28;20449;-65
2023/10/30 03:06:36;;;;;;;1.73;1.10;;;13.10;99.90;;;;;;5094085;28;20498;-65
2023/10/30 03:09:03;;;;;;;1.10;0.80;;;13.00;99.90;;;;;;5078645;28;20480;-66
2023/10/30 03:11:32;;;;;;;1.40;1.00;;;13.00;99.90;;;;;;5097695;28;20453;-57
2023/10/30 03:13:58;;;;;;;2.70;1.13;;;13.00;99.90;;;;;;5088969;28;20569;-65
2023/10/30 03:16:25;;;;;;;1.83;0.80;;;13.10;99.90;;;;;;5077782;28;20485;-60
2023/10/30 03:18:53;;;;;;;2.90;1.00;;;13.10;99.90;;;;;;5096807;28;20442;-65
2023/10/30 03:21:23;;;;;;;1.20;0.83;;;13.10;99.90;;;;;;5078423;28;20484;-65
2023/10/30 03:23:50;;;;;;;1.00;0.80;;;13.10;99.90;;;;;;5088620;28;20462;-62
2023/10/30 03:26:16;;;;;;;1.20;0.90;;;13.10;99.90;;;;;;5087777;28;20466;-65
2023/10/30 03:28:43;;;;;;;1.00;0.80;;;13.10;99.90;;;;;;5078069;28;20474;-65
2023/10/30 03:31:10;;;;;;;4.00;0.90;;;13.10;99.90;;;;;;5080469;28;20525;-67
2023/10/30 03:33:37;;;;;;;4.60;0.90;;;13.10;99.90;;;;;;5099286;28;20443;-53
2023/10/30 03:36:06;;;;;;;1.97;0.93;;;13.10;99.90;;;;;;5092674;28;20463;-65
2023/10/30 03:38:35;;;;;;;1.60;1.03;;;13.10;99.90;;;;;;5085557;28;20426;-57
2023/10/30 03:41:02;;;;;;;5.40;1.00;;;13.10;99.90;;;;;;5099305;28;20446;-65
2023/10/30 03:43:28;;;;;;;1.93;1.10;;;13.10;99.90;;;;;;5090521;28;20474;-66
2023/10/30 03:45:55;;;;;;;7.70;1.93;;;13.10;99.90;;;;;;5076104;28;20557;-66
2023/10/30 03:48:22;;;;;;;2.37;1.00;;;13.10;99.90;;;;;;5087484;28;20435;-61
2023/10/30 03:50:50;;;;;;;7.20;1.00;;;13.10;99.90;;;;;;5095242;28;20937;-65
2023/10/30 03:53:18;;;;;;;2.70;1.20;;;13.10;99.90;;;;;;5115894;28;20465;-59
2023/10/30 03:55:45;;;;;;;3.13;1.07;;;13.10;99.90;;;;;;5114600;28;20473;-66
2023/10/30 03:58:15;;;;;;;4.13;0.90;;;13.20;99.90;;;;;;5103300;28;20470;-59
2023/10/30 04:00:43;;;;;;;1.50;1.10;;;13.10;99.90;;;;;;5104783;28;20469;-65
2023/10/30 04:03:09;;;;;;;4.90;1.33;;;13.10;99.90;;;;;;5096046;28;20441;-65
2023/10/30 04:05:38;;;;;;;1.53;1.00;;;13.20;99.90;;;;;;5105303;28;20430;-55
2023/10/30 04:08:07;;;;;;;3.30;0.93;;;13.20;99.90;;;;;;5119631;28;20433;-58
2023/10/30 04:10:35;;;;;;;5.10;1.10;;;13.20;99.90;;;;;;5120274;28;20441;-57
2023/10/30 04:13:02;;;;;;;2.10;1.27;;;13.10;99.90;;;;;;5118889;28;20469;-64
2023/10/30 04:15:29;;;;;;;2.60;1.40;;;13.10;99.90;;;;;;5112962;28;20487;-64
2023/10/30 04:17:56;;;;;;;2.97;2.17;;;13.20;99.90;;;;;;5100774;28;20446;-66
2023/10/30 04:20:23;;;;;;;1.77;1.20;;;13.10;99.90;;;;;;5095931;28;21013;-65
2023/10/30 04:22:50;;;;;;;2.80;1.30;;;13.10;99.90;;;;;;5095640;28;20967;-66
2023/10/30 04:25:18;;;;;;;1.40;1.30;;;13.20;99.90;;;;;;5095886;28;20452;-66
2023/10/30 04:27:47;;;;;;;4.53;1.03;;;13.20;99.90;;;;;;5096409;28;20448;-64
2023/10/30 04:30:14;;;;;;;1.77;1.27;;;13.10;99.90;;;;;;5108033;28;20445;-60
2023/10/30 04:32:41;;;;;;;2.30;1.13;;;13.10;99.90;;;;;;5103195;28;20463;-66
2023/10/30 04:35:09;;;;;;;1.73;1.13;;;13.10;99.90;;;;;;5117004;28;20476;-52
2023/10/30 04:37:36;;;;;;;1.60;1.20;;;13.10;99.90;;;;;;5119864;28;20410;-51
2023/10/30 04:40:04;;;;;;;3.00;1.30;;;13.10;99.90;;;;;;5113845;28;21128;-65
2023/10/30 04:42:31;;;;;;;1.47;1.10;;;13.10;99.90;;;;;;5096215;28;20464;-64
2023/10/30 04:44:59;;;;;;;3.73;1.33;;;13.10;99.90;;;;;;5104265;28;20497;-53
2023/10/30 04:47:29;;;;;;;1.63;1.00;;;13.10;99.90;;;;;;5119647;28;20465;-56
2023/10/30 04:49:58;;;;;;;4.23;1.13;;;13.10;99.90;;;;;;5109301;28;20418;-51
2023/10/30 04:52:25;;;;;;;5.83;1.30;;;13.10;99.90;;;;;;5091351;28;20456;-65
2023/10/30 04:54:52;;;;;;;2.70;1.13;;;13.20;99.90;;;;;;5074734;28;20861;-65
2023/10/30 04:57:19;;;;;;;2.70;1.13;;;13.10;99.90;;;;;;5075238;28;20907;-65
2023/10/30 04:59:46;;;;;;;1.30;0.90;;;13.10;99.90;;;;;;5075091;28;20994;-67
2023/10/30 05:02:14;;;;;;;5.37;1.07;;;13.10;99.90;;;;;;5075019;28;20512;-65
2023/10/30 05:04:41;;;;;;;1.30;0.80;;;13.20;99.90;;;;;;5077414;28;20521;-65
2023/10/30 05:07:10;;;;;;;1.73;0.90;;;13.10;99.90;;;;;;5091776;28;20426;-55
2023/10/30 05:09:36;;;;;;;2.20;1.23;;;13.10;99.90;;;;;;5094940;28;20431;-62
2023/10/30 05:12:04;;;;;;;3.33;2.30;;;13.10;99.90;;;;;;5091812;28;20474;-61
2023/10/30 05:14:34;;;;;;;7.60;0.90;;;13.20;99.90;;;;;;5088202;28;20462;-56
2023/10/30 05:17:01;;;;;;;1.97;1.37;;;13.20;99.90;;;;;;5098631;28;20475;-56
2023/10/30 05:19:29;;;;;;;3.23;1.20;;;13.10;99.90;;;;;;5103669;28;20417;-62
2023/10/30 05:21:56;;;;;;;2.47;1.57;;;13.10;99.90;;;;;;5116700;28;20495;-63
2023/10/30 05:24:23;;;;;;;3.33;1.20;;;13.10;99.90;;;;;;5102036;28;20457;-65
2023/10/30 05:26:52;;;;;;;1.90;1.60;;;13.10;99.90;;;;;;5095183;28;20433;-64
2023/10/30 05:29:19;;;;;;;3.47;1.23;;;13.10;99.90;;;;;;5110149;28;20442;-58
2023/10/30 05:31:45;;;;;;;5.53;1.40;;;13.20;99.90;;;;;;5112053;28;20426;-65
2023/10/30 05:34:12;;;;;;;3.63;1.10;;;13.20;99.90;;;;;;5102846;28;20529;-65
2023/10/30 05:36:41;;;;;;;2.77;1.30;;;13.10;99.90;;;;;;5094651;28;20560;-66
2023/10/30 05:39:07;;;;;;;3.80;0.90;;;13.10;99.90;;;;;;5095323;28;20528;-65
2023/10/30 05:41:34;;;;;;;6.33;2.53;;;13.10;99.90;;;;;;5109339;28;20456;-56
2023/10/30 05:44:04;;;;;;;3.33;1.27;;;13.20;99.90;;;;;;5118780;28;20408;-55
2023/10/30 05:46:33;;;;;;;1.90;1.30;;;13.20;99.90;;;;;;5113715;28;20445;-64
2023/10/30 05:49:00;;;;;;;1.93;1.33;;;13.20;99.90;;;;;;5112454;28;20441;-65
2023/10/30 05:51:27;;;;;;;1.77;1.20;;;13.10;99.90;;;;;;5112606;28;20465;-65
2023/10/30 05:53:55;;;;;;;2.60;2.40;;;13.10;99.90;;;;;;5112194;28;20813;-65
2023/10/30 05:56:22;;;;;;;3.47;1.20;;;13.10;99.90;;;;;;5112533;28;20473;-66
2023/10/30 05:58:49;;;;;;;2.30;1.70;;;13.10;99.90;;;;;;5103313;28;20481;-64
2023/10/30 06:01:16;;;;;;;2.10;1.83;;;13.10;99.90;;;;;;5094483;28;20533;-65
2023/10/30 06:03:43;;;;;;;4.63;1.13;;;13.10;99.90;;;;;;5096081;28;20524;-65
2023/10/30 06:06:10;;;;;;;2.77;1.53;;;13.10;99.90;;;;;;5097478;28;20441;-65
2023/10/30 06:08:37;;;;;;;2.70;1.00;;;13.00;99.90;;;;;;5115411;28;20441;-56
2023/10/30 06:11:05;;;;;;;3.90;1.33;;;13.10;99.90;;;;;;5112250;28;20496;-64
2023/10/30 06:13:32;;;;;;;4.83;1.60;;;13.10;99.90;;;;;;5112709;28;20472;-64
2023/10/30 06:15:59;;;;;;;3.30;1.10;;;13.00;99.90;;;;;;5097265;28;21036;-64
2023/10/30 06:18:26;;;;;;;2.20;1.40;;;13.10;99.90;;;;;;5098452;28;20859;-65
2023/10/30 06:20:54;;;;;;;4.80;1.70;;;13.10;99.90;;;;;;5117742;28;20447;-58
2023/10/30 06:23:22;;;;;;;2.83;1.10;;;13.10;99.90;;;;;;5106667;28;20454;-65
2023/10/30 06:25:51;;;;;;;2.77;1.30;;;13.00;99.90;;;;;;5076499;28;20494;-65
2023/10/30 06:28:19;;;;;;;3.93;1.40;;;13.00;99.90;;;;;;5094069;28;20461;-65
2023/10/30 06:30:46;;;;;;;1.53;1.07;;;13.00;99.90;;;;;;5094392;28;20528;-66
2023/10/30 06:33:13;;;;;;;2.53;1.10;;;13.00;99.90;;;;;;5094976;28;20533;-65
2023/10/30 06:35:40;;;;;;;3.70;1.60;;;13.00;99.90;;;;;;5093266;28;20478;-65
2023/10/30 06:38:06;;;;;;;2.40;1.20;;;13.00;99.90;;;;;;5079192;28;20538;-56
2023/10/30 06:40:33;;;;;;;3.37;1.20;;;13.00;99.90;;;;;;5114197;28;20440;-64
2023/10/30 06:43:00;;;;;;;3.83;1.33;;;13.00;99.90;;;;;;5116689;28;20465;-63
2023/10/30 06:45:28;;;;;;;4.47;1.13;;;13.10;99.90;;;;;;5115548;28;20449;-64
2023/10/30 06:47:57;;;;;;;2.07;0.90;;;13.10;99.90;;;;;;5115727;28;20498;-65
2023/10/30 06:50:24;;;;;;;2.50;1.30;;;13.10;99.90;;;;;;5099345;28;20532;-67
2023/10/30 06:52:50;;;;;;;3.70;1.20;;;13.10;99.90;;;;;;5096917;28;21025;-65
2023/10/30 06:55:17;;;;;;;4.20;1.40;;;13.20;99.90;;;;;;5092101;28;20980;-65
2023/10/30 06:57:44;;;;;;;4.57;1.30;;;13.20;99.90;;;;;;5094378;28;20572;-66
2023/10/30 07:00:12;;;;;;;5.33;1.40;;;13.20;99.90;;;;;;5112813;28;20460;-63
2023/10/30 07:02:41;;;;;;;4.33;1.37;;;13.20;99.90;;;;;;5116764;28;20437;-64
2023/10/30 07:05:08;;;;;;;3.27;1.53;;;13.20;99.90;;;;;;5115192;28;20428;-65
2023/10/30 07:07:35;;;;;;;2.80;1.00;;;13.30;99.90;;;;;;5101010;28;20452;-66
2023/10/30 07:10:04;;;;;;;3.10;1.10;;;13.40;99.90;;;;;;5109728;28;20449;-64
2023/10/30 07:12:31;;;;;;;6.00;1.60;;;13.40;99.90;;;;;;5097575;28;20441;-67
2023/10/30 07:15:01;;;;;;;1.83;1.30;;;13.50;99.90;;;;;;5104352;28;20504;-59
2023/10/30 07:17:28;;;;;;;3.40;1.40;;;13.50;99.90;;;;;;5121393;28;20414;-57
2023/10/30 07:19:56;;;;;;;2.37;1.37;;;13.60;99.90;;;;;;5119642;28;20466;-63
2023/10/30 07:22:23;;;;;;;5.07;1.63;;;13.70;99.90;;;;;;5119221;28;20440;-62
2023/10/30 07:24:50;;;;;;;1.93;1.13;;;13.80;99.90;;;;;;5108073;28;20430;-55
2023/10/30 07:27:19;;;;;;;4.10;1.57;;;13.90;99.90;;;;;;5121236;28;20421;-53
2023/10/30 07:29:46;;;;;;;3.53;1.40;;;14.00;99.90;;;;;;5104029;28;20521;-65
2023/10/30 07:32:12;;;;;;;3.70;1.33;;;14.00;99.90;;;;;;5097228;28;20530;-65
2023/10/30 07:34:41;;;;;;;1.70;1.20;;;14.10;99.90;;;;;;5096873;28;20549;-65
2023/10/30 07:37:09;;;;;;;4.07;1.33;;;14.20;99.90;;;;;;5120451;28;20471;-56
2023/10/30 07:39:36;;;;;;;4.73;1.27;;;14.30;99.90;;;;;;5120881;28;20455;-62
2023/10/30 07:42:05;;;;;;;1.33;1.10;;;14.30;99.90;;;;;;5118730;28;20430;-62
2023/10/30 07:44:32;;;;;;;5.13;1.17;;;14.30;99.90;;;;;;5105014;28;20445;-65
2023/10/30 07:46:58;;;;;;;3.27;1.20;;;14.40;99.90;;;;;;5096520;28;20469;-65
2023/10/30 07:49:25;;;;;;;5.50;1.43;;;14.40;99.90;;;;;;5096307;28;20556;-67
2023/10/30 07:51:52;;;;;;;5.70;1.50;;;14.40;99.90;;;;;;5096299;28;20544;-65
2023/10/30 07:54:21;;;;;;;5.40;1.40;;;14.50;99.90;;;;;;5096570;28;20461;-66
2023/10/30 07:56:48;;;;;;;2.80;1.20;;;14.60;99.90;;;;;;5096402;28;20784;-64
2023/10/30 07:59:15;;;;;;;2.40;1.20;;;14.60;99.90;;;;;;5097898;28;20864;-66
2023/10/30 08:01:44;;;;;;;3.67;1.20;;;14.60;99.90;;;;;;5100586;28;20424;-64
2023/10/30 08:04:13;;;;;;;1.73;1.23;;;14.70;99.90;;;;;;5106770;28;20507;-57
2023/10/30 08:06:40;;;;;;;1.60;1.30;;;14.80;99.90;;;;;;5114320;28;20434;-65
2023/10/30 08:09:08;;;;;;;2.30;1.00;;;14.90;99.90;;;;;;5110459;28;20453;-65
2023/10/30 08:11:36;;;;;;;1.73;1.10;;;15.00;99.90;;;;;;5096145;28;20475;-68
2023/10/30 08:14:03;;;;;;;13.03;1.30;;;15.00;99.90;;;;;;5097144;28;20437;-66
2023/10/30 08:16:32;;;;;;;4.00;1.40;;;15.00;99.90;;;;;;5096061;28;20580;-65
2023/10/30 08:18:59;;;;;;;2.70;1.40;;;15.00;99.90;;;;;;5096183;28;20788;-66
2023/10/30 08:21:26;;;;;;;1.53;1.20;;;15.10;99.90;;;;;;5112854;28;20449;-56
2023/10/30 08:23:52;;;;;;;2.90;1.30;;;15.10;99.90;;;;;;5105357;28;20480;-64
2023/10/30 08:26:19;;;;;;;2.30;1.20;;;15.10;99.90;;;;;;5111571;28;20466;-59
2023/10/30 08:28:48;;;;;;;2.07;1.20;;;15.10;99.90;;;;;;5112401;28;20794;-66
2023/10/30 08:31:22;;;;;;;4.10;1.63;;;15.00;99.90;;;;;;5106313;28;20429;-56
2023/10/30 08:33:49;;;;;;;9.43;1.50;;;15.00;99.90;;;;;;5113154;28;20577;-67
2023/10/30 08:36:24;;;;;;;3.40;1.50;;;15.00;99.90;;;;;;5118412;28;20469;-52
2023/10/30 08:38:51;;;;;;;2.37;1.33;;;14.90;99.90;;;;;;5111791;28;20418;-64
2023/10/30 08:41:18;;;;;;;2.03;1.50;;;14.90;99.90;;;;;;5117471;28;20413;-61
2023/10/30 08:43:48;;;;;;;2.50;1.30;;;14.90;99.90;;;;;;5112772;28;20457;-66
2023/10/30 08:46:19;;;;;;;10.13;1.70;;;14.90;99.90;;;;;;5115569;28;20454;-65
2023/10/30 08:48:46;;;;;;;2.93;1.57;;;14.90;99.90;;;;;;5114097;28;20485;-67
2023/10/30 08:51:15;;;;;;;5.53;1.20;;;15.00;99.90;;;;;;5115098;28;20509;-54
2023/10/30 08:53:42;;;;;;;2.97;1.50;;;15.00;99.90;;;;;;5124551;28;20433;-60
2023/10/30 08:56:10;;;;;;;4.80;1.57;;;15.10;99.90;;;;;;5127454;28;20480;-62
2023/10/30 08:58:37;;;;;;;2.93;1.60;;;15.20;99.90;;;;;;5133781;28;20490;-62
2023/10/30 09:01:05;;;;;;;2.60;1.60;;;15.30;99.90;;;;;;5118126;28;20480;-56
2023/10/30 09:03:41;;;;;;;4.33;1.50;;;15.40;99.90;;;;;;5112506;28;20956;-58
2023/10/30 09:06:07;;;;;;;3.30;2.10;;;15.50;99.90;;;;;;5121767;28;20421;-66
2023/10/30 09:08:35;;;;;;;3.10;1.50;;;15.60;99.90;;;;;;5123893;28;20528;-53
2023/10/30 09:11:01;;;;;;;3.87;1.40;;;15.60;99.90;;;;;;5118077;28;20826;-65
2023/10/30 09:13:28;;;;;;;4.33;1.30;;;15.70;99.90;;;;;;5116145;28;20441;-59
2023/10/30 09:15:58;;;;;;;3.70;1.50;;;15.80;99.90;;;;;;5118830;28;20477;-57
2023/10/30 09:18:27;;;;;;;3.27;1.77;;;15.80;99.90;;;;;;5120695;28;20417;-57
2023/10/30 09:20:53;;;;;;;5.37;1.50;;;15.90;99.90;;;;;;5129362;28;20445;-61
2023/10/30 09:23:20;;;;;;;3.50;1.60;;;16.00;99.90;;;;;;5112753;28;20452;-65
2023/10/30 09:25:53;;;;;;;3.03;2.43;;;16.10;99.90;;;;;;5120856;28;20417;-55
2023/10/30 09:28:20;;;;;;;3.20;1.50;;;16.10;99.90;;;;;;5117119;28;20523;-63
2023/10/30 09:30:47;;;;;;;5.07;2.03;;;16.20;99.90;;;;;;5120074;28;20452;-63
2023/10/30 09:33:14;;;;;;;2.73;1.40;;;16.30;99.90;;;;;;5098235;28;20433;-65
2023/10/30 09:35:42;;;;;;;4.40;1.83;;;16.40;99.90;;;;;;5112526;28;20489;-65
2023/10/30 09:38:09;;;;;;;6.10;2.87;;;16.40;99.90;;;;;;5094567;28;20862;-64
2023/10/30 09:40:36;;;;;;;8.23;1.30;;;16.40;99.90;;;;;;5109349;28;20450;-64
2023/10/30 09:43:09;;;;;;;3.30;1.53;;;16.30;99.90;;;;;;5117249;28;20440;-55
2023/10/30 09:45:38;;;;;;;3.83;1.40;;;16.20;99.90;;;;;;5111205;28;20422;-65
2023/10/30 09:48:07;;;;;;;1.80;1.30;;;16.20;99.90;;;;;;5093154;28;21169;-65
2023/10/30 09:50:35;;;;;;;5.50;1.90;;;16.20;99.90;;;;;;5118067;28;20594;-56
2023/10/30 09:53:04;;;;;;;1.87;1.33;;;16.20;99.90;;;;;;5090848;28;20470;-65
2023/10/30 09:55:31;;;;;;;1.60;1.23;;;16.30;99.90;;;;;;5105412;28;20449;-58
2023/10/30 09:57:58;;;;;;;7.57;1.67;;;16.40;99.90;;;;;;5115278;28;20477;-60
2023/10/30 10:00:25;;;;;;;1.97;1.53;;;16.40;99.90;;;;;;5081482;28;20454;-65
2023/10/30 10:02:52;;;;;;;5.03;1.73;;;16.50;99.90;;;;;;5101202;28;20509;-65
2023/10/30 10:05:19;;;;;;;4.13;1.47;;;16.60;99.90;;;;;;5103588;28;20449;-66
2023/10/30 10:07:46;;;;;;;2.27;1.10;;;16.70;99.90;;;;;;5094675;28;20534;-65
2023/10/30 10:10:18;;;;;;;9.53;4.50;;;16.90;99.90;;;;;;5090636;28;20511;-56
2023/10/30 10:12:49;;;;;;;5.47;2.87;;;17.10;99.90;;;;;;5102115;28;20502;-59
2023/10/30 10:15:16;;;;;;;9.40;4.47;;;17.10;99.90;;;;;;5112228;28;20430;-65
2023/10/30 10:17:44;;;;;;;9.10;1.90;;;17.40;99.90;;;;;;5112024;28;20453;-58
2023/10/30 10:20:12;;;;;;;2.50;1.30;;;17.80;99.90;;;;;;5112580;28;20452;-66
2023/10/30 10:22:40;;;;;;;3.90;1.80;;;17.90;99.90;;;;;;5091921;28;20541;-66
2023/10/30 10:25:10;;;;;;;5.90;1.63;;;18.00;99.90;;;;;;5082555;28;20493;-64
2023/10/30 10:27:42;;;;;;;3.97;1.23;;;17.70;99.90;;;;;;5098383;28;20433;-64
2023/10/30 10:30:13;;;;;;;5.00;1.23;;;17.40;99.90;;;;;;5107133;28;20441;-58
2023/10/30 10:32:48;;;;;;;1.57;1.13;;;17.20;99.90;;;;;;5118581;28;20417;-59
2023/10/30 10:35:17;;;;;;;18.03;1.67;;;17.10;99.90;;;;;;5102737;28;20477;-65
2023/10/30 10:37:43;;;;;;;12.50;1.50;;;17.00;99.90;;;;;;5109141;28;20458;-64
2023/10/30 10:40:18;;;;;;;5.43;1.80;;;17.00;99.90;;;;;;5099294;28;20564;-65
2023/10/30 10:42:46;;;;;;;3.93;2.27;;;16.90;99.90;;;;;;5097962;28;20436;-65
2023/10/30 10:45:15;;;;;;;3.70;1.40;;;16.80;99.90;;;;;;5107119;28;20462;-55
2023/10/30 10:47:42;;;;;;;5.17;1.50;;;16.70;99.90;;;;;;5097651;28;20508;-59
2023/10/30 10:50:10;;;;;;;4.60;1.37;;;16.60;99.90;;;;;;5119926;28;20445;-54
2023/10/30 10:52:41;;;;;;;2.70;1.30;;;16.60;99.90;;;;;;5113254;28;20441;-66
2023/10/30 10:55:09;;;;;;;3.40;1.60;;;16.50;99.90;;;;;;5108353;28;20481;-57
2023/10/30 10:57:49;;;;;;;5.50;1.30;;;16.50;99.90;;;;;;5112715;28;20503;-64
2023/10/30 11:00:18;;;;;;;2.77;1.50;;;16.40;99.90;;;;;;5106556;28;20523;-62
2023/10/30 11:02:49;;;;;;;2.50;1.37;;;16.30;99.90;;;;;;5094761;28;20576;-64
2023/10/30 11:05:16;;;;;;;3.80;1.30;;;16.30;99.90;;;;;;5117039;28;20418;-57
2023/10/30 11:07:51;;;;;;;3.20;1.70;;;16.20;99.90;;;;;;5106205;28;20441;-57
2023/10/30 11:10:24;;;;;;;4.77;1.40;;;16.20;99.90;;;;;;5113012;28;20449;-66
2023/10/30 11:13:04;;;;;;;3.90;2.10;;;16.10;99.90;;;;;;5096498;28;20465;-66
2023/10/30 11:15:37;;;;;;;1.70;1.43;;;16.10;99.90;;;;;;5099775;28;20455;-54
2023/10/30 11:18:14;;;;;;;1.60;1.10;;;16.10;99.90;;;;;;5117038;28;20503;-68
2023/10/30 11:20:42;;;;;;;3.23;1.87;;;16.20;99.90;;;;;;5101777;28;20480;-65
2023/10/30 11:23:09;;;;;;;2.13;1.17;;;16.30;99.90;;;;;;5116137;28;20655;-65
2023/10/30 11:25:54;;;;;;;16.50;2.03;;;16.30;99.90;;;;;;5114403;28;20452;-63
2023/10/30 11:28:23;;;;;;;3.40;1.63;;;16.40;99.90;;;;;;5110099;28;20607;-65
2023/10/30 11:30:53;;;;;;;4.73;1.70;;;16.50;99.90;;;;;;5097515;28;20437;-65
2023/10/30 11:33:21;;;;;;;5.27;1.50;;;16.60;99.90;;;;;;5095900;28;20482;-65
2023/10/30 11:36:12;;;;;;;3.87;1.67;;;16.70;99.90;;;;;;5097264;28;20801;-65
2023/10/30 11:38:49;;;;;;;5.13;1.30;;;16.80;99.90;;;;;;5096865;28;20430;-66
2023/10/30 11:41:17;;;;;;;3.20;1.40;;;16.80;99.90;;;;;;5110027;28;20453;-66
2023/10/30 11:43:45;;;;;;;4.93;1.53;;;16.80;99.90;;;;;;5096818;28;20437;-67
2023/10/30 11:46:18;;;;;;;2.60;1.30;;;16.80;99.90;;;;;;5114509;28;20445;-57
2023/10/30 11:48:45;;;;;;;2.53;1.47;;;16.90;99.90;;;;;;5101889;28;20461;-66
2023/10/30 11:51:14;;;;;;;6.90;2.00;;;17.00;99.90;;;;;;5097515;28;20454;-65
2023/10/30 11:53:43;;;;;;;5.63;1.70;;;16.90;99.90;;;;;;5090839;28;20453;-57
2023/10/30 11:56:13;;;;;;;1.60;1.10;;;16.90;99.90;;;;;;5116770;28;20458;-66
2023/10/30 11:58:40;;;;;;;7.00;1.83;;;16.90;99.90;;;;;;5096085;28;20473;-66
2023/10/30 12:01:09;;;;;;;4.67;1.67;;;16.90;99.90;;;;;;5101624;28;20450;-56
2023/10/30 12:03:38;;;;;;;2.57;1.40;;;16.80;99.90;;;;;;5120789;28;20434;-58
2023/10/30 12:06:05;;;;;;;2.70;1.63;;;16.80;99.90;;;;;;5097928;28;20449;-67
2023/10/30 12:08:33;;;;;;;3.17;1.20;;;16.70;99.90;;;;;;5113626;28;20496;-65
2023/10/30 12:11:00;;;;;;;2.30;1.60;;;16.70;99.90;;;;;;5105863;28;20441;-58
2023/10/30 12:13:27;;;;;;;2.33;1.57;;;16.50;99.90;;;;;;5117060;28;20465;-66
2023/10/30 12:15:54;;;;;;;2.10;1.40;;;16.50;99.90;;;;;;5110389;28;20453;-60
2023/10/30 12:18:23;;;;;;;6.60;1.53;;;16.40;99.90;;;;;;5101292;28;20536;-65
2023/10/30 12:20:52;;;;;;;1.60;1.13;;;16.30;99.90;;;;;;5109676;28;20450;-56
2023/10/30 12:23:19;;;;;;;2.30;1.23;;;16.30;99.90;;;;;;5114936;28;20457;-66
2023/10/30 12:25:50;;;;;;;2.60;1.50;;;16.20;99.90;;;;;;5118603;28;20446;-55
2023/10/30 12:28:17;;;;;;;2.03;1.40;;;16.20;99.90;;;;;;5118631;28;20492;-65
2023/10/30 12:30:45;;;;;;;4.23;1.30;;;16.20;99.90;;;;;;5114033;28;20417;-56
2023/10/30 12:33:13;;;;;;;3.27;1.90;;;16.20;99.90;;;;;;5113311;28;20454;-65
2023/10/30 12:35:42;;;;;;;2.70;1.60;;;16.40;99.90;;;;;;5109126;28;20492;-66
2023/10/30 12:38:16;;;;;;;3.23;1.40;;;16.40;99.90;;;;;;5105846;28;20481;-65
2023/10/30 12:40:45;;;;;;;6.90;2.33;;;16.50;99.90;;;;;;5093236;28;20509;-68
2023/10/30 12:43:13;;;;;;;8.73;2.47;;;16.70;99.90;;;;;;5095329;28;20540;-67
2023/10/30 12:45:40;;;;;;;7.37;2.00;;;16.90;99.90;;;;;;5107778;28;20450;-68
2023/10/30 12:48:07;;;;;;;9.90;6.67;;;17.00;99.90;;;;;;5095495;28;20453;-65
2023/10/30 12:50:35;;;;;;;6.17;3.37;;;17.10;99.90;;;;;;5094981;28;20469;-64
2023/10/30 12:53:02;;;;;;;7.13;3.53;;;17.20;99.90;;;;;;5095713;28;20918;-65